createdAt,value
2022-07-31T00:02:46.776Z,19.10
2022-07-31T00:05:50.856Z,18.90
2022-07-31T00:08:53.979Z,18.90
2022-07-31T00:11:57.297Z,18.90
2022-07-31T00:15:01.604Z,18.90
2022-07-31T00:18:06.558Z,18.80
2022-07-31T00:21:24.850Z,17.40
2022-07-31T00:24:30.165Z,18.80
2022-07-31T00:27:34.476Z,18.80
2022-07-31T00:30:37.767Z,18.80
2022-07-31T00:33:42.669Z,18.70
2022-07-31T00:36:46.430Z,18.70
2022-07-31T00:39:51.429Z,18.70
2022-07-31T00:42:54.667Z,18.70
2022-07-31T00:45:59.468Z,18.70
2022-07-31T00:49:04.350Z,18.70
2022-07-31T00:52:07.974Z,18.80
2022-07-31T00:55:11.659Z,18.80
2022-07-31T00:58:14.831Z,18.80
2022-07-31T01:01:18.206Z,18.80
2022-07-31T01:04:23.809Z,18.80
2022-07-31T01:07:27.016Z,18.90
2022-07-31T01:10:45.831Z,18.90
2022-07-31T01:13:58.191Z,18.90
2022-07-31T01:17:05.904Z,19.00
2022-07-31T01:20:13.986Z,19.00
2022-07-31T01:23:55.143Z,19.10
2022-07-31T01:27:05.986Z,19.10
2022-07-31T01:30:11.710Z,21.50
2022-07-31T01:33:21.459Z,19.20
2022-07-31T01:36:34.618Z,19.20
2022-07-31T01:39:43.617Z,20.50
2022-07-31T01:43:03.081Z,19.20
2022-07-31T01:46:12.810Z,19.20
2022-07-31T01:49:19.324Z,19.20
2022-07-31T01:52:25.392Z,19.20
2022-07-31T01:56:02.070Z,19.20
2022-07-31T01:58:58.456Z,19.20
2022-07-31T02:02:05.514Z,19.20
2022-07-31T02:05:11.831Z,20.20
2022-07-31T02:08:18.992Z,19.20
2022-07-31T02:11:23.349Z,19.20
2022-07-31T02:14:28.690Z,19.00
2022-07-31T02:17:34.750Z,19.20
2022-07-31T02:20:41.391Z,19.20
2022-07-31T02:23:45.508Z,19.20
2022-07-31T02:26:49.358Z,19.20
2022-07-31T02:29:52.720Z,19.20
2022-07-31T02:32:58.252Z,19.30
2022-07-31T02:36:04.608Z,19.20
2022-07-31T02:39:11.672Z,21.50
2022-07-31T02:42:16.583Z,19.20
2022-07-31T02:45:22.404Z,19.20
2022-07-31T02:48:28.117Z,19.20
2022-07-31T02:51:39.699Z,19.20
2022-07-31T02:54:46.986Z,19.20
2022-07-31T02:57:51.282Z,19.20
2022-07-31T03:01:01.700Z,19.30
2022-07-31T03:04:06.353Z,19.20
2022-07-31T03:07:09.592Z,19.20
2022-07-31T03:10:14.638Z,19.20
2022-07-31T03:13:21.004Z,19.20
2022-07-31T03:16:24.214Z,19.20
2022-07-31T03:19:29.911Z,19.20
2022-07-31T03:22:33.517Z,19.20
2022-07-31T03:25:37.256Z,19.20
2022-07-31T03:28:40.396Z,19.20
2022-07-31T03:31:43.461Z,19.20
2022-07-31T03:34:48.290Z,19.20
2022-07-31T03:37:51.891Z,19.20
2022-07-31T03:40:55.032Z,19.20
2022-07-31T03:43:58.416Z,19.20
2022-07-31T03:47:02.068Z,19.20
2022-07-31T03:50:09.672Z,19.10
2022-07-31T03:53:14.413Z,19.10
2022-07-31T03:56:19.944Z,19.10
2022-07-31T03:59:23.643Z,19.10
2022-07-31T04:02:27.465Z,19.10
2022-07-31T04:05:32.001Z,19.10
2022-07-31T04:08:35.346Z,17.20
2022-07-31T04:11:38.467Z,19.10
2022-07-31T04:14:41.725Z,19.10
2022-07-31T04:17:46.235Z,19.10
2022-07-31T04:20:50.743Z,19.10
2022-07-31T04:23:55.683Z,19.10
2022-07-31T04:26:59.836Z,19.10
2022-07-31T04:30:03.385Z,19.10
2022-07-31T04:33:06.606Z,19.80
2022-07-31T04:36:29.269Z,19.20
2022-07-31T04:39:39.961Z,19.20
2022-07-31T04:42:43.861Z,19.10
2022-07-31T04:45:47.092Z,20.20
2022-07-31T04:48:50.505Z,19.10
2022-07-31T04:51:55.335Z,19.30
2022-07-31T04:54:59.140Z,19.20
2022-07-31T04:58:02.223Z,19.10
2022-07-31T05:01:05.374Z,19.00
2022-07-31T05:04:09.175Z,20.40
2022-07-31T05:07:14.227Z,19.00
2022-07-31T05:10:32.055Z,19.10
2022-07-31T05:13:35.141Z,19.00
2022-07-31T05:16:39.246Z,19.00
2022-07-31T05:19:42.195Z,19.10
2022-07-31T05:22:46.684Z,19.00
2022-07-31T05:25:49.756Z,19.00
2022-07-31T05:28:58.422Z,19.00
2022-07-31T05:32:02.670Z,19.00
2022-07-31T05:35:06.893Z,19.00
2022-07-31T05:38:12.994Z,19.00
2022-07-31T05:41:16.585Z,19.00
2022-07-31T05:44:20.123Z,18.90
2022-07-31T05:47:23.447Z,19.00
2022-07-31T05:50:26.696Z,19.00
2022-07-31T05:53:31.142Z,19.00
2022-07-31T05:56:34.276Z,19.00
2022-07-31T05:59:37.429Z,19.00
2022-07-31T06:02:49.113Z,19.00
2022-07-31T06:05:52.677Z,20.20
2022-07-31T06:09:02.044Z,19.10
2022-07-31T06:12:08.301Z,19.20
2022-07-31T06:15:12.012Z,19.20
2022-07-31T06:18:16.093Z,19.30
2022-07-31T06:24:23.163Z,20.70
2022-07-31T06:27:33.575Z,19.40
2022-07-31T06:30:37.903Z,19.50
2022-07-31T06:33:40.973Z,19.50
2022-07-31T06:36:51.558Z,19.60
2022-07-31T06:39:56.694Z,19.70
2022-07-31T06:43:03.760Z,19.70
2022-07-31T06:46:14.675Z,21.80
2022-07-31T06:49:18.158Z,19.80
2022-07-31T06:52:21.633Z,20.00
2022-07-31T06:55:26.325Z,20.10
2022-07-31T06:58:31.899Z,20.10
2022-07-31T07:01:35.705Z,20.20
2022-07-31T07:05:00.775Z,20.30
2022-07-31T07:08:03.373Z,20.40
2022-07-31T07:11:12.100Z,20.50
2022-07-31T07:14:16.320Z,20.60
2022-07-31T07:17:19.372Z,20.70
2022-07-31T07:20:23.827Z,20.80
2022-07-31T07:23:27.159Z,21.30
2022-07-31T07:26:33.051Z,21.00
2022-07-31T07:29:36.363Z,21.10
2022-07-31T07:32:39.512Z,21.20
2022-07-31T07:35:42.638Z,22.70
2022-07-31T07:38:45.724Z,21.30
2022-07-31T07:41:53.346Z,21.30
2022-07-31T07:44:56.495Z,21.40
2022-07-31T07:48:06.281Z,22.20
2022-07-31T07:51:11.375Z,21.50
2022-07-31T07:54:15.245Z,21.60
2022-07-31T07:57:22.464Z,21.70
2022-07-31T08:00:26.129Z,21.70
2022-07-31T08:03:48.688Z,21.80
2022-07-31T08:06:53.326Z,21.80
2022-07-31T08:09:57.304Z,21.90
2022-07-31T08:13:01.582Z,22.00
2022-07-31T08:16:05.374Z,21.40
2022-07-31T08:19:10.589Z,22.50
2022-07-31T08:22:13.840Z,22.60
2022-07-31T08:25:17.952Z,22.70
2022-07-31T08:28:25.829Z,24.00
2022-07-31T08:31:29.037Z,22.80
2022-07-31T08:34:32.553Z,22.80
2022-07-31T08:37:59.254Z,22.80
2022-07-31T08:40:58.933Z,22.80
2022-07-31T08:44:04.655Z,22.90
2022-07-31T08:47:08.638Z,23.10
2022-07-31T08:50:15.154Z,23.20
2022-07-31T08:53:22.667Z,23.30
2022-07-31T08:56:26.726Z,23.10
2022-07-31T08:59:31.327Z,23.30
2022-07-31T09:02:35.535Z,23.40
2022-07-31T09:05:42.558Z,23.50
2022-07-31T09:08:46.108Z,23.40
2022-07-31T09:11:53.748Z,23.50
2022-07-31T09:14:58.573Z,23.60
2022-07-31T09:18:01.646Z,23.70
2022-07-31T09:21:07.443Z,23.80
2022-07-31T09:24:14.246Z,24.00
2022-07-31T09:27:17.988Z,24.00
2022-07-31T09:30:22.434Z,24.10
2022-07-31T09:33:28.162Z,24.10
2022-07-31T09:36:31.459Z,24.10
2022-07-31T09:39:35.905Z,24.10
2022-07-31T09:42:45.928Z,24.10
2022-07-31T09:46:00.117Z,24.10
2022-07-31T09:49:03.311Z,23.90
2022-07-31T09:52:06.673Z,24.20
2022-07-31T09:55:17.112Z,24.20
2022-07-31T09:58:21.764Z,24.30
2022-07-31T10:01:27.654Z,24.40
2022-07-31T10:07:38.728Z,24.50
2022-07-31T10:10:45.536Z,24.40
2022-07-31T10:13:53.743Z,24.40
2022-07-31T10:17:04.532Z,24.30
2022-07-31T10:20:10.602Z,24.30
2022-07-31T10:23:18.802Z,24.30
2022-07-31T10:26:34.326Z,24.30
2022-07-31T10:29:46.486Z,24.20
2022-07-31T10:32:52.266Z,24.30
2022-07-31T10:36:04.746Z,24.60
2022-07-31T10:39:25.450Z,24.40
2022-07-31T10:42:43.465Z,24.50
2022-07-31T10:45:52.084Z,24.60
2022-07-31T10:48:56.973Z,24.50
2022-07-31T10:52:00.215Z,24.40
2022-07-31T10:55:15.874Z,24.40
2022-07-31T10:58:20.665Z,24.40
2022-07-31T11:01:25.835Z,25.30
2022-07-31T11:04:32.974Z,25.80
2022-07-31T11:07:36.258Z,24.20
2022-07-31T11:10:50.559Z,24.20
2022-07-31T11:13:56.935Z,24.10
2022-07-31T11:17:00.177Z,24.10
2022-07-31T11:20:06.840Z,26.00
2022-07-31T11:23:10.427Z,24.10
2022-07-31T11:26:13.701Z,24.20
2022-07-31T11:30:00.451Z,24.20
2022-07-31T11:32:54.286Z,24.20
2022-07-31T11:36:07.462Z,24.10
2022-07-31T11:39:14.067Z,24.30
2022-07-31T11:42:26.378Z,24.00
2022-07-31T11:45:33.532Z,24.00
2022-07-31T11:48:45.217Z,23.90
2022-07-31T11:51:50.702Z,23.80
2022-07-31T11:55:09.031Z,23.70
2022-07-31T11:58:12.763Z,23.60
2022-07-31T12:01:16.539Z,23.60
2022-07-31T12:04:20.966Z,23.60
2022-07-31T12:07:25.526Z,23.70
2022-07-31T12:10:29.945Z,23.60
2022-07-31T12:13:33.246Z,23.60
2022-07-31T12:16:45.808Z,23.50
2022-07-31T12:19:49.125Z,25.20
2022-07-31T12:23:01.032Z,23.50
2022-07-31T12:26:04.211Z,23.50
2022-07-31T12:29:10.538Z,23.60
2022-07-31T12:32:13.782Z,23.70
2022-07-31T12:35:16.948Z,23.70
2022-07-31T12:38:45.841Z,23.70
2022-07-31T12:41:52.052Z,23.80
2022-07-31T12:44:58.312Z,23.80
2022-07-31T12:48:01.849Z,23.80
2022-07-31T12:51:05.216Z,23.80
2022-07-31T12:54:10.691Z,23.70
2022-07-31T12:57:14.793Z,23.70
2022-07-31T13:00:19.173Z,23.70
2022-07-31T13:03:22.996Z,23.70
2022-07-31T13:06:29.087Z,23.70
2022-07-31T13:09:34.906Z,23.70
2022-07-31T13:12:38.311Z,23.70
2022-07-31T13:15:43.722Z,25.50
2022-07-31T13:18:46.803Z,23.70
2022-07-31T13:21:50.359Z,23.70
2022-07-31T13:24:54.939Z,23.60
2022-07-31T13:27:58.103Z,23.90
2022-07-31T13:31:01.189Z,23.30
2022-07-31T13:34:06.141Z,23.10
2022-07-31T13:37:09.315Z,23.00
2022-07-31T13:40:46.562Z,22.90
2022-07-31T13:44:00.557Z,22.90
2022-07-31T13:47:04.154Z,23.20
2022-07-31T13:50:08.974Z,22.80
2022-07-31T13:53:12.972Z,22.80
2022-07-31T13:56:38.635Z,22.80
2022-07-31T13:59:40.412Z,22.70
2022-07-31T14:03:25.046Z,23.80
2022-07-31T14:06:29.513Z,22.60
2022-07-31T14:09:35.898Z,22.60
2022-07-31T14:12:40.487Z,22.60
2022-07-31T14:15:44.034Z,22.60
2022-07-31T14:18:47.107Z,22.70
2022-07-31T14:21:56.863Z,22.70
2022-07-31T14:25:00.723Z,22.70
2022-07-31T14:28:05.955Z,23.20
2022-07-31T14:31:58.760Z,22.70
2022-07-31T14:35:07.814Z,22.70
2022-07-31T14:38:11.796Z,22.70
2022-07-31T14:41:15.463Z,22.70
2022-07-31T14:44:21.464Z,22.70
2022-07-31T14:47:32.338Z,24.50
2022-07-31T14:50:38.814Z,22.60
2022-07-31T14:53:41.914Z,22.60
2022-07-31T14:57:00.670Z,22.60
2022-07-31T15:00:12.831Z,22.50
2022-07-31T15:03:15.978Z,22.50
2022-07-31T15:06:41.808Z,22.50
2022-07-31T15:09:43.783Z,22.40
2022-07-31T15:12:46.926Z,22.40
2022-07-31T15:15:51.418Z,22.40
2022-07-31T15:18:55.171Z,22.40
2022-07-31T15:22:11.123Z,22.40
2022-07-31T15:25:20.068Z,22.50
2022-07-31T15:28:23.167Z,22.60
2022-07-31T15:31:28.132Z,22.60
2022-07-31T15:34:33.731Z,22.70
2022-07-31T15:37:39.660Z,22.70
2022-07-31T15:40:42.985Z,22.80
2022-07-31T15:43:59.930Z,22.70
2022-07-31T15:47:04.689Z,22.70
2022-07-31T15:50:11.432Z,22.60
2022-07-31T15:53:14.745Z,22.60
2022-07-31T15:56:17.855Z,22.50
2022-07-31T15:59:43.299Z,22.40
2022-07-31T16:02:47.732Z,22.30
2022-07-31T16:05:56.068Z,22.80
2022-07-31T16:08:59.817Z,22.10
2022-07-31T16:12:04.710Z,22.10
2022-07-31T16:15:18.534Z,22.00
2022-07-31T16:18:24.973Z,22.10
2022-07-31T16:21:28.177Z,22.40
2022-07-31T16:24:31.903Z,22.70
2022-07-31T16:27:35.165Z,22.50
2022-07-31T16:30:51.990Z,22.50
2022-07-31T16:33:56.853Z,22.60
2022-07-31T16:36:59.939Z,24.20
2022-07-31T16:40:04.386Z,22.70
2022-07-31T16:43:48.091Z,22.70
2022-07-31T16:46:33.915Z,22.70
2022-07-31T16:49:38.778Z,22.70
2022-07-31T16:52:41.964Z,22.70
2022-07-31T16:55:51.537Z,22.70
2022-07-31T16:59:04.742Z,22.70
2022-07-31T17:02:09.143Z,22.70
2022-07-31T17:05:13.870Z,23.00
2022-07-31T17:08:17.044Z,22.70
2022-07-31T17:11:20.331Z,23.60
2022-07-31T17:14:30.901Z,22.60
2022-07-31T17:17:34.010Z,22.50
2022-07-31T17:20:39.361Z,22.50
2022-07-31T17:23:47.766Z,22.50
2022-07-31T17:26:55.231Z,22.50
2022-07-31T17:29:58.407Z,22.50
2022-07-31T17:33:01.899Z,22.50
2022-07-31T17:36:07.020Z,22.50
2022-07-31T17:39:11.292Z,22.60
2022-07-31T17:42:14.661Z,22.60
2022-07-31T17:45:21.365Z,22.60
2022-07-31T17:48:59.611Z,22.60
2022-07-31T17:52:04.544Z,22.60
2022-07-31T17:55:09.187Z,22.60
2022-07-31T17:58:12.306Z,22.50
2022-07-31T18:01:15.417Z,22.40
2022-07-31T18:04:19.045Z,22.30
2022-07-31T18:07:24.233Z,22.30
2022-07-31T18:10:51.914Z,22.30
2022-07-31T18:13:51.649Z,22.30
2022-07-31T18:16:55.831Z,22.20
2022-07-31T18:20:21.486Z,22.20
2022-07-31T18:23:29.410Z,23.30
2022-07-31T18:26:44.152Z,22.20
2022-07-31T18:29:55.928Z,22.70
2022-07-31T18:32:59.622Z,22.20
2022-07-31T18:36:03.717Z,22.10
2022-07-31T18:39:08.057Z,22.50
2022-07-31T18:42:11.299Z,22.00
2022-07-31T18:45:14.395Z,22.00
2022-07-31T18:48:17.617Z,22.00
2022-07-31T18:51:22.939Z,21.90
2022-07-31T18:54:28.522Z,22.00
2022-07-31T18:57:31.581Z,22.00
2022-07-31T19:00:34.733Z,22.20
2022-07-31T19:03:38.018Z,22.00
2022-07-31T19:06:41.271Z,22.00
2022-07-31T19:09:45.755Z,22.00
2022-07-31T19:12:49.091Z,22.00
2022-07-31T19:15:54.446Z,21.90
2022-07-31T19:18:57.544Z,21.90
2022-07-31T19:22:01.002Z,21.80
2022-07-31T19:25:07.065Z,21.80
2022-07-31T19:28:11.609Z,21.80
2022-07-31T19:31:18.514Z,21.70
2022-07-31T19:34:21.613Z,22.10
2022-07-31T19:37:24.790Z,21.60
2022-07-31T19:40:30.180Z,21.40
2022-07-31T19:43:35.321Z,21.30
2022-07-31T19:46:39.367Z,21.20
2022-07-31T19:49:44.706Z,21.10
2022-07-31T19:52:48.167Z,21.00
2022-07-31T19:55:52.593Z,20.90
2022-07-31T19:58:55.999Z,22.00
2022-07-31T20:01:59.355Z,20.80
2022-07-31T20:05:02.642Z,20.70
2022-07-31T20:08:06.115Z,20.70
2022-07-31T20:11:20.165Z,20.60
2022-07-31T20:14:33.505Z,20.60
2022-07-31T20:17:36.827Z,20.50
2022-07-31T20:20:41.693Z,20.50
2022-07-31T20:23:48.950Z,20.50
2022-07-31T20:26:54.049Z,20.50
2022-07-31T20:29:57.198Z,20.40
2022-07-31T20:33:00.375Z,20.40
2022-07-31T20:36:04.994Z,20.40
2022-07-31T20:39:09.625Z,20.40
2022-07-31T20:42:14.526Z,20.40
2022-07-31T20:45:17.836Z,20.40
2022-07-31T20:51:27.773Z,20.40
2022-07-31T20:54:34.485Z,20.40
2022-07-31T20:57:40.390Z,20.40
2022-07-31T21:00:45.428Z,21.90
2022-07-31T21:03:49.235Z,20.40
2022-07-31T21:06:52.419Z,20.30
2022-07-31T21:09:55.522Z,20.30
2022-07-31T21:13:00.054Z,20.30
2022-07-31T21:16:03.267Z,20.30
2022-07-31T21:19:09.482Z,20.30
2022-07-31T21:22:13.394Z,20.30
2022-07-31T21:25:17.958Z,20.30
2022-07-31T21:28:24.378Z,20.30
2022-07-31T21:31:28.205Z,20.30
2022-07-31T21:34:32.141Z,20.30
2022-07-31T21:37:40.085Z,20.30
2022-07-31T21:40:43.874Z,20.30
2022-07-31T21:43:58.565Z,20.30
2022-07-31T21:47:04.205Z,20.30
2022-07-31T21:50:10.068Z,20.30
2022-07-31T21:53:14.201Z,20.30
2022-07-31T21:56:17.230Z,20.40
2022-07-31T21:59:21.901Z,20.40
2022-07-31T22:02:25.105Z,20.40
2022-07-31T22:05:45.889Z,20.40
2022-07-31T22:08:49.504Z,20.40
2022-07-31T22:11:54.977Z,20.40
2022-07-31T22:15:11.242Z,20.40
2022-07-31T22:18:19.708Z,20.40
2022-07-31T22:21:23.554Z,20.40
2022-07-31T22:24:27.255Z,20.40
2022-07-31T22:27:48.926Z,20.40
2022-07-31T22:31:10.271Z,20.40
2022-07-31T22:34:14.432Z,20.40
2022-07-31T22:37:38.226Z,22.10
2022-07-31T22:40:44.037Z,20.50
2022-07-31T22:44:12.926Z,20.40
2022-07-31T22:47:13.653Z,20.40
2022-07-31T22:50:17.091Z,20.50
2022-07-31T22:53:20.182Z,20.40
2022-07-31T22:56:24.242Z,20.40
2022-07-31T22:59:27.230Z,20.40
2022-07-31T23:02:31.768Z,20.80
2022-07-31T23:06:28.294Z,20.40
2022-07-31T23:08:58.141Z,20.40
2022-07-31T23:12:03.153Z,20.40
2022-07-31T23:15:08.203Z,20.40
2022-07-31T23:18:13.299Z,20.40
2022-07-31T23:21:16.837Z,20.40
2022-07-31T23:24:19.969Z,20.30
2022-07-31T23:27:23.099Z,20.40
2022-07-31T23:30:27.479Z,20.40
2022-07-31T23:33:31.972Z,20.40
2022-07-31T23:36:35.112Z,20.40
2022-07-31T23:39:38.223Z,20.40
2022-07-31T23:42:41.339Z,20.40
2022-07-31T23:45:44.415Z,20.40
2022-07-31T23:48:49.309Z,20.40
2022-07-31T23:51:52.513Z,20.40
2022-07-31T23:54:55.576Z,20.40
2022-07-31T23:57:58.723Z,20.40
